createdAt,value
2019-04-29T00:02:18.748Z,4.13
2019-04-29T00:04:47.823Z,4.97
2019-04-29T00:07:17.060Z,5.03
2019-04-29T00:09:46.173Z,4.30
2019-04-29T00:12:15.466Z,4.50
2019-04-29T00:14:48.247Z,4.80
2019-04-29T00:17:23.864Z,4.70
2019-04-29T00:20:17.587Z,4.20
2019-04-29T00:22:46.613Z,4.97
2019-04-29T00:25:15.707Z,4.83
2019-04-29T00:27:44.730Z,5.93
2019-04-29T00:30:17.926Z,5.40
2019-04-29T00:32:47.090Z,7.20
2019-04-29T00:35:16.573Z,5.20
2019-04-29T00:38:03.257Z,5.50
2019-04-29T00:40:51.346Z,5.23
2019-04-29T00:43:39.505Z,5.60
2019-04-29T00:46:09.605Z,5.23
2019-04-29T00:48:38.703Z,5.10
2019-04-29T00:51:07.949Z,5.57
2019-04-29T00:53:37.355Z,6.27
2019-04-29T00:56:06.601Z,6.57
2019-04-29T00:58:35.545Z,5.10
2019-04-29T01:01:09.082Z,5.33
2019-04-29T01:03:41.050Z,6.23
2019-04-29T01:06:09.030Z,6.17
2019-04-29T01:08:38.174Z,6.40
2019-04-29T01:11:07.319Z,5.43
2019-04-29T01:13:36.518Z,9.30
2019-04-29T01:16:05.488Z,6.03
2019-04-29T01:18:34.556Z,6.63
2019-04-29T01:21:03.646Z,7.53
2019-04-29T01:23:33.056Z,6.97
2019-04-29T01:26:07.956Z,7.17
2019-04-29T01:28:49.462Z,7.63
2019-04-29T01:31:23.125Z,7.93
2019-04-29T01:33:55.658Z,7.87
2019-04-29T01:36:32.398Z,7.57
2019-04-29T01:39:03.954Z,9.07
2019-04-29T01:41:38.814Z,8.10
2019-04-29T01:44:08.876Z,7.57
2019-04-29T01:46:37.954Z,8.07
2019-04-29T01:49:07.018Z,7.90
2019-04-29T01:51:36.054Z,9.67
2019-04-29T01:54:05.306Z,8.47
2019-04-29T01:56:34.319Z,8.37
2019-04-29T01:59:03.479Z,8.33
2019-04-29T02:01:32.564Z,8.40
2019-04-29T02:04:01.730Z,9.47
2019-04-29T02:06:30.849Z,11.73
2019-04-29T02:08:59.921Z,8.77
2019-04-29T02:11:28.941Z,9.70
2019-04-29T02:13:57.965Z,9.43
2019-04-29T02:16:26.963Z,8.67
2019-04-29T02:18:56.094Z,8.97
2019-04-29T02:21:25.237Z,9.60
2019-04-29T02:24:13.455Z,9.33
2019-04-29T02:26:42.497Z,8.83
2019-04-29T02:29:11.465Z,8.17
2019-04-29T02:31:42.432Z,9.97
2019-04-29T02:34:11.585Z,9.23
2019-04-29T02:36:40.732Z,8.87
2019-04-29T02:39:28.662Z,10.03
2019-04-29T02:42:15.680Z,8.93
2019-04-29T02:44:44.990Z,10.37
2019-04-29T02:47:14.104Z,9.90
2019-04-29T02:49:43.130Z,12.17
2019-04-29T02:52:12.161Z,10.20
2019-04-29T02:54:41.595Z,11.10
2019-04-29T02:57:35.733Z,10.03
2019-04-29T03:00:21.364Z,10.57
2019-04-29T03:02:59.759Z,10.87
2019-04-29T03:05:32.195Z,11.20
2019-04-29T03:08:01.373Z,11.13
2019-04-29T03:10:30.729Z,11.07
2019-04-29T03:12:59.897Z,11.50
2019-04-29T03:15:32.468Z,12.33
2019-04-29T03:18:02.218Z,13.20
2019-04-29T03:20:55.008Z,12.60
2019-04-29T03:23:24.476Z,12.77
2019-04-29T03:25:53.749Z,12.80
2019-04-29T03:28:23.021Z,12.53
2019-04-29T03:30:52.026Z,12.17
2019-04-29T03:33:21.081Z,14.40
2019-04-29T03:35:50.199Z,12.60
2019-04-29T03:38:19.332Z,14.13
2019-04-29T03:40:48.596Z,12.47
2019-04-29T03:43:17.882Z,12.70
2019-04-29T03:45:47.153Z,13.83
2019-04-29T03:48:19.195Z,14.73
2019-04-29T03:50:48.428Z,13.77
2019-04-29T03:53:17.681Z,14.53
2019-04-29T03:55:46.866Z,15.23
2019-04-29T03:58:16.100Z,15.77
2019-04-29T04:00:46.950Z,16.10
2019-04-29T04:03:33.760Z,16.20
2019-04-29T04:06:27.496Z,14.83
2019-04-29T04:09:05.921Z,15.43
2019-04-29T04:11:31.049Z,14.87
2019-04-29T04:14:00.044Z,15.20
2019-04-29T04:16:46.872Z,14.63
2019-04-29T04:19:16.134Z,15.87
2019-04-29T04:21:46.102Z,14.97
2019-04-29T04:24:15.284Z,16.37
2019-04-29T04:26:44.392Z,16.13
2019-04-29T04:29:13.528Z,18.57
2019-04-29T04:31:42.812Z,17.37
2019-04-29T04:34:11.975Z,17.37
2019-04-29T04:36:41.014Z,17.30
2019-04-29T04:39:10.216Z,17.43
2019-04-29T04:41:39.993Z,17.77
2019-04-29T04:44:09.155Z,18.13
2019-04-29T04:46:38.286Z,17.07
2019-04-29T04:49:07.409Z,16.90
2019-04-29T04:51:36.655Z,17.20
2019-04-29T04:54:05.835Z,17.37
2019-04-29T04:56:34.867Z,17.93
2019-04-29T04:59:04.163Z,16.50
2019-04-29T05:01:33.363Z,18.40
2019-04-29T05:04:02.760Z,17.20
2019-04-29T05:06:32.080Z,19.63
2019-04-29T05:09:01.112Z,19.93
2019-04-29T05:11:30.443Z,17.20
2019-04-29T05:14:00.117Z,17.93
2019-04-29T05:16:29.167Z,20.67
2019-04-29T05:18:58.340Z,25.47
2019-04-29T05:21:28.349Z,18.07
2019-04-29T05:23:57.442Z,18.53
2019-04-29T05:26:26.605Z,20.23
2019-04-29T05:28:55.789Z,17.67
2019-04-29T05:31:24.994Z,18.37
2019-04-29T05:33:54.352Z,17.10
2019-04-29T05:36:34.115Z,18.60
2019-04-29T05:39:32.638Z,18.73
2019-04-29T05:42:01.758Z,17.87
2019-04-29T05:44:36.688Z,17.70
2019-04-29T05:47:17.948Z,17.77
2019-04-29T05:50:06.721Z,19.37
2019-04-29T05:52:44.822Z,17.37
2019-04-29T05:55:15.462Z,18.67
2019-04-29T05:57:44.662Z,16.90
2019-04-29T06:00:14.461Z,17.83
2019-04-29T06:02:43.840Z,17.20
2019-04-29T06:05:13.320Z,16.33
2019-04-29T06:07:42.698Z,18.60
2019-04-29T06:10:12.360Z,16.63
2019-04-29T06:12:44.546Z,17.50
2019-04-29T06:15:14.848Z,17.00
2019-04-29T06:17:46.315Z,17.93
2019-04-29T06:20:17.515Z,16.57
2019-04-29T06:22:48.382Z,16.30
2019-04-29T06:25:17.935Z,15.67
2019-04-29T06:27:48.213Z,15.93
2019-04-29T06:30:18.259Z,20.50
2019-04-29T06:32:47.432Z,16.97
2019-04-29T06:35:16.713Z,18.57
2019-04-29T06:37:46.281Z,17.77
2019-04-29T06:40:15.537Z,17.77
2019-04-29T06:42:45.123Z,19.30
2019-04-29T06:45:15.336Z,18.87
2019-04-29T06:47:47.769Z,20.10
2019-04-29T06:50:17.209Z,16.83
2019-04-29T06:52:47.793Z,17.00
2019-04-29T06:55:17.088Z,17.13
2019-04-29T06:57:46.189Z,18.33
2019-04-29T07:00:23.807Z,16.60
2019-04-29T07:02:52.768Z,16.30
2019-04-29T07:05:22.783Z,15.60
2019-04-29T07:07:52.233Z,14.37
2019-04-29T07:10:26.633Z,13.83
2019-04-29T07:12:52.267Z,14.17
2019-04-29T07:15:21.529Z,14.03
2019-04-29T07:17:50.848Z,11.90
2019-04-29T07:20:20.089Z,14.67
2019-04-29T07:22:49.278Z,11.63
2019-04-29T07:25:18.504Z,12.33
2019-04-29T07:27:48.005Z,10.80
2019-04-29T07:30:19.922Z,11.27
2019-04-29T07:32:49.176Z,12.27
2019-04-29T07:35:18.360Z,9.97
2019-04-29T07:37:48.014Z,9.07
2019-04-29T07:40:22.487Z,9.83
2019-04-29T07:42:52.212Z,10.57
2019-04-29T07:45:29.077Z,9.63
2019-04-29T07:48:06.492Z,9.37
2019-04-29T07:50:40.585Z,9.87
2019-04-29T07:53:09.992Z,10.60
2019-04-29T07:55:39.331Z,10.63
2019-04-29T07:58:08.623Z,11.43
2019-04-29T08:00:38.179Z,11.70
2019-04-29T08:03:08.464Z,14.90
2019-04-29T08:05:43.879Z,12.43
2019-04-29T08:08:16.686Z,13.20
2019-04-29T08:10:53.993Z,13.77
2019-04-29T08:13:16.609Z,14.57
2019-04-29T08:15:45.874Z,15.13
2019-04-29T08:18:16.166Z,16.67
2019-04-29T08:20:46.387Z,15.43
2019-04-29T08:23:15.661Z,15.27
2019-04-29T08:25:45.204Z,17.53
2019-04-29T08:28:14.568Z,17.97
2019-04-29T08:30:45.911Z,17.23
2019-04-29T08:33:14.714Z,15.67
2019-04-29T08:35:46.619Z,16.20
2019-04-29T08:38:14.780Z,17.23
2019-04-29T08:40:50.207Z,16.03
2019-04-29T08:43:32.659Z,18.30
2019-04-29T08:46:05.893Z,15.60
2019-04-29T08:48:35.284Z,16.70
2019-04-29T08:51:04.611Z,16.47
2019-04-29T08:53:34.344Z,15.47
2019-04-29T08:56:05.548Z,16.33
2019-04-29T08:58:34.528Z,17.00
2019-04-29T09:01:03.969Z,21.73
2019-04-29T09:03:40.579Z,16.37
2019-04-29T09:06:05.947Z,16.60
2019-04-29T09:08:35.479Z,16.73
2019-04-29T09:11:08.084Z,16.43
2019-04-29T09:20:44.261Z,17.57
2019-04-29T09:23:16.525Z,18.43
2019-04-29T09:26:20.095Z,20.80
2019-04-29T09:28:50.675Z,18.17
2019-04-29T09:31:19.935Z,17.40
2019-04-29T09:33:51.001Z,17.17
2019-04-29T09:36:21.630Z,18.23
2019-04-29T09:38:51.015Z,17.40
2019-04-29T09:41:45.425Z,17.80
2019-04-29T09:44:51.584Z,15.10
2019-04-29T09:47:20.978Z,18.97
2019-04-29T09:49:50.134Z,17.70
2019-04-29T09:52:19.419Z,25.23
2019-04-29T09:54:48.623Z,19.87
2019-04-29T09:57:18.376Z,18.67
2019-04-29T09:59:53.587Z,17.50
2019-04-29T10:02:54.117Z,19.47
2019-04-29T10:05:48.252Z,20.73
2019-04-29T10:08:17.560Z,18.00
2019-04-29T10:10:47.075Z,21.67
2019-04-29T10:13:16.482Z,17.47
2019-04-29T10:16:03.194Z,20.70
2019-04-29T10:18:37.660Z,21.80
2019-04-29T10:21:09.314Z,18.90
2019-04-29T10:23:38.670Z,19.20
2019-04-29T10:26:07.842Z,15.43
2019-04-29T10:28:42.029Z,17.73
2019-04-29T10:31:11.462Z,16.00
2019-04-29T10:33:40.656Z,19.40
2019-04-29T10:36:10.031Z,19.57
2019-04-29T10:38:40.456Z,20.57
2019-04-29T10:41:21.225Z,19.43
2019-04-29T10:44:10.778Z,23.07
2019-04-29T10:46:58.484Z,18.03
2019-04-29T10:49:39.087Z,18.37
2019-04-29T10:52:06.805Z,18.20
2019-04-29T10:54:36.094Z,21.30
2019-04-29T10:57:05.959Z,18.57
2019-04-29T10:59:40.740Z,21.47
2019-04-29T11:02:32.075Z,16.17
2019-04-29T11:05:13.497Z,19.23
2019-04-29T11:07:44.220Z,22.50
2019-04-29T11:10:25.243Z,21.13
2019-04-29T11:12:51.971Z,14.90
2019-04-29T11:15:28.303Z,17.87
2019-04-29T11:17:59.238Z,21.07
2019-04-29T11:20:27.570Z,16.40
2019-04-29T11:23:03.340Z,14.97
2019-04-29T11:25:40.592Z,17.83
2019-04-29T11:28:12.118Z,20.07
2019-04-29T11:30:41.240Z,17.70
2019-04-29T11:33:25.203Z,18.73
2019-04-29T11:36:04.109Z,17.13
2019-04-29T11:38:33.426Z,17.47
2019-04-29T11:41:02.867Z,20.97
2019-04-29T11:43:32.559Z,14.97
2019-04-29T11:46:01.781Z,19.77
2019-04-29T11:48:30.910Z,18.73
2019-04-29T11:51:22.128Z,17.70
2019-04-29T11:53:52.552Z,20.43
2019-04-29T11:56:21.921Z,18.60
2019-04-29T11:58:58.219Z,16.47
2019-04-29T12:01:51.803Z,19.53
2019-04-29T12:04:33.536Z,18.33
2019-04-29T12:06:59.838Z,20.67
2019-04-29T12:09:30.671Z,19.67
2019-04-29T12:12:00.437Z,21.50
2019-04-29T12:14:38.055Z,15.43
2019-04-29T12:17:18.000Z,14.57
2019-04-29T12:19:47.979Z,19.07
2019-04-29T12:22:28.466Z,17.83
2019-04-29T12:24:48.287Z,21.83
2019-04-29T12:27:19.686Z,16.10
2019-04-29T12:29:53.478Z,15.33
2019-04-29T12:32:47.644Z,16.60
2019-04-29T12:35:30.546Z,16.43
2019-04-29T12:38:39.855Z,23.30
2019-04-29T12:41:21.613Z,17.40
2019-04-29T12:44:02.364Z,17.03
2019-04-29T12:46:43.649Z,15.93
2019-04-29T12:49:13.818Z,15.93
2019-04-29T12:51:43.561Z,16.03
2019-04-29T12:54:12.844Z,18.50
2019-04-29T12:56:47.384Z,14.17
2019-04-29T12:59:13.622Z,18.00
2019-04-29T13:01:58.808Z,14.87
2019-04-29T13:04:49.816Z,15.43
2019-04-29T13:07:24.921Z,15.93
2019-04-29T13:09:56.450Z,21.90
2019-04-29T13:12:25.920Z,16.83
2019-04-29T13:15:20.538Z,17.03
2019-04-29T13:18:03.566Z,15.03
2019-04-29T13:20:30.220Z,14.97
2019-04-29T13:23:17.026Z,16.37
2019-04-29T13:25:32.802Z,16.20
2019-04-29T13:28:03.973Z,20.13
2019-04-29T13:30:32.975Z,15.33
2019-04-29T13:33:06.363Z,17.30
2019-04-29T13:35:33.297Z,16.37
2019-04-29T13:38:02.805Z,16.20
2019-04-29T13:40:32.938Z,17.13
2019-04-29T13:43:04.879Z,15.97
2019-04-29T13:45:40.861Z,14.47
2019-04-29T13:48:53.935Z,14.33
2019-04-29T13:51:10.027Z,16.37
2019-04-29T13:53:39.815Z,16.30
2019-04-29T13:56:18.145Z,16.03
2019-04-29T13:58:43.480Z,14.27
2019-04-29T14:01:30.019Z,20.87
2019-04-29T14:04:04.527Z,17.77
2019-04-29T14:06:35.499Z,14.37
2019-04-29T14:09:06.823Z,14.90
2019-04-29T14:11:36.276Z,14.50
2019-04-29T14:14:06.135Z,16.20
2019-04-29T14:16:35.543Z,18.33
2019-04-29T14:19:04.902Z,15.43
2019-04-29T14:21:34.316Z,17.53
2019-04-29T14:24:04.617Z,16.17
2019-04-29T14:26:37.107Z,13.33
2019-04-29T14:29:05.152Z,15.37
2019-04-29T14:31:34.490Z,14.37
2019-04-29T14:34:09.196Z,12.70
2019-04-29T14:36:38.649Z,14.17
2019-04-29T14:39:08.857Z,12.57
2019-04-29T14:41:42.798Z,11.80
2019-04-29T14:44:40.368Z,12.20
2019-04-29T14:47:34.908Z,12.30
2019-04-29T14:50:10.789Z,12.83
2019-04-29T14:52:38.766Z,11.57
2019-04-29T14:55:08.550Z,10.37
2019-04-29T14:57:37.984Z,10.77
2019-04-29T15:00:12.770Z,12.40
2019-04-29T15:02:42.266Z,10.77
2019-04-29T15:05:16.694Z,11.23
2019-04-29T15:07:46.070Z,13.33
2019-04-29T15:10:15.752Z,9.77
2019-04-29T15:13:01.508Z,12.00
2019-04-29T15:15:43.140Z,10.33
2019-04-29T15:18:38.653Z,14.50
2019-04-29T15:21:01.737Z,12.57
2019-04-29T15:23:32.885Z,10.50
2019-04-29T15:26:03.843Z,10.80
2019-04-29T15:28:35.697Z,11.10
2019-04-29T15:31:08.094Z,9.63
2019-04-29T15:33:36.489Z,8.30
2019-04-29T15:36:05.927Z,6.87
2019-04-29T15:38:35.566Z,10.97
2019-04-29T15:41:12.115Z,10.80
2019-04-29T15:43:47.851Z,6.77
2019-04-29T15:46:13.128Z,9.00
2019-04-29T15:48:42.872Z,10.30
2019-04-29T15:51:13.955Z,12.07
2019-04-29T15:53:43.139Z,27.17
2019-04-29T15:56:27.663Z,15.27
2019-04-29T15:58:44.184Z,9.90
2019-04-29T16:01:17.777Z,9.77
2019-04-29T16:03:45.095Z,8.77
2019-04-29T16:06:33.919Z,6.80
2019-04-29T16:09:30.459Z,7.40
2019-04-29T16:12:04.868Z,6.83
2019-04-29T16:14:31.958Z,6.87
2019-04-29T16:17:01.364Z,6.27
2019-04-29T16:19:30.860Z,7.80
2019-04-29T16:22:00.226Z,8.57
2019-04-29T16:24:37.618Z,10.70
2019-04-29T16:27:08.478Z,8.27
2019-04-29T16:29:34.337Z,5.77
2019-04-29T16:32:05.829Z,7.77
2019-04-29T16:34:37.434Z,8.30
2019-04-29T16:37:06.432Z,8.30
2019-04-29T16:39:36.011Z,8.07
2019-04-29T16:42:27.122Z,10.47
2019-04-29T16:44:56.586Z,7.10
2019-04-29T16:47:25.810Z,5.33
2019-04-29T16:49:57.552Z,8.27
2019-04-29T16:52:26.281Z,7.57
2019-04-29T16:54:59.141Z,5.77
2019-04-29T16:57:26.922Z,6.37
2019-04-29T16:59:56.141Z,7.60
2019-04-29T17:02:25.850Z,5.87
2019-04-29T17:04:55.049Z,6.90
2019-04-29T17:07:24.633Z,4.70
2019-04-29T17:10:20.277Z,5.73
2019-04-29T17:12:51.017Z,8.17
2019-04-29T17:15:26.142Z,7.83
2019-04-29T17:17:55.813Z,7.50
2019-04-29T17:20:25.411Z,6.67
2019-04-29T17:22:54.634Z,7.30
2019-04-29T17:25:30.759Z,6.00
2019-04-29T17:28:25.670Z,8.33
2019-04-29T17:31:12.153Z,7.10
2019-04-29T17:33:49.813Z,6.87
2019-04-29T17:36:23.554Z,9.77
2019-04-29T17:38:59.618Z,3.97
2019-04-29T17:41:29.038Z,5.67
2019-04-29T17:44:14.556Z,21.30
2019-04-29T17:47:19.281Z,8.70
2019-04-29T17:49:53.653Z,9.10
2019-04-29T17:52:28.248Z,7.20
2019-04-29T17:55:05.264Z,3.60
2019-04-29T17:57:47.984Z,5.03
2019-04-29T18:00:43.888Z,5.30
2019-04-29T18:03:29.399Z,4.50
2019-04-29T18:06:09.232Z,5.23
2019-04-29T18:08:56.368Z,8.53
2019-04-29T18:11:25.608Z,4.63
2019-04-29T18:13:57.039Z,8.50
2019-04-29T18:16:33.174Z,6.07
2019-04-29T18:19:10.262Z,5.20
2019-04-29T18:22:16.397Z,7.33
2019-04-29T18:24:57.021Z,6.40
2019-04-29T18:27:27.299Z,5.67
2019-04-29T18:29:56.482Z,5.97
2019-04-29T18:32:34.998Z,3.80
2019-04-29T18:34:56.615Z,3.63
2019-04-29T18:37:26.179Z,5.57
2019-04-29T18:39:57.761Z,4.23
2019-04-29T18:42:27.192Z,5.77
2019-04-29T18:45:00.157Z,5.37
2019-04-29T18:47:34.469Z,6.13
2019-04-29T18:49:58.352Z,5.00
2019-04-29T18:52:28.488Z,5.53
2019-04-29T18:54:57.793Z,5.07
2019-04-29T18:57:30.825Z,5.83
2019-04-29T18:59:58.990Z,5.27
2019-04-29T19:02:32.138Z,5.47
2019-04-29T19:05:14.964Z,4.63
2019-04-29T19:07:54.895Z,5.50
2019-04-29T19:10:18.514Z,4.77
2019-04-29T19:12:57.522Z,5.57
2019-04-29T19:15:18.514Z,5.83
2019-04-29T19:17:58.767Z,5.90
2019-04-29T19:20:19.772Z,14.07
2019-04-29T19:22:59.680Z,9.37
2019-04-29T19:25:22.420Z,6.73
2019-04-29T19:27:51.503Z,4.90
2019-04-29T19:30:26.479Z,8.17
2019-04-29T19:33:00.229Z,9.43
2019-04-29T19:35:29.398Z,5.27
2019-04-29T19:37:57.257Z,7.47
2019-04-29T19:40:30.629Z,7.03
2019-04-29T19:42:57.658Z,4.67
2019-04-29T19:45:26.968Z,5.53
2019-04-29T19:47:56.266Z,4.80
2019-04-29T19:50:25.854Z,7.90
2019-04-29T19:52:56.268Z,4.90
2019-04-29T19:55:27.835Z,5.90
2019-04-29T19:57:57.016Z,5.13
2019-04-29T20:00:29.213Z,5.20
2019-04-29T20:02:59.491Z,5.90
2019-04-29T20:05:39.029Z,6.10
2019-04-29T20:08:07.328Z,5.07
2019-04-29T20:10:46.689Z,4.13
2019-04-29T20:13:08.659Z,4.00
2019-04-29T20:15:45.868Z,6.77
2019-04-29T20:18:40.423Z,6.80
2019-04-29T20:21:24.952Z,5.07
2019-04-29T20:23:46.654Z,5.17
2019-04-29T20:26:23.062Z,4.63
2019-04-29T20:28:51.131Z,5.20
2019-04-29T20:31:21.985Z,5.90
2019-04-29T20:33:49.352Z,5.13
2019-04-29T20:36:37.345Z,4.03
2019-04-29T20:38:49.617Z,7.77
2019-04-29T20:41:36.897Z,6.07
2019-04-29T20:43:49.991Z,4.90
2019-04-29T20:46:19.580Z,4.93
2019-04-29T20:48:50.443Z,4.37
2019-04-29T20:51:23.254Z,5.23
2019-04-29T20:54:03.871Z,5.63
2019-04-29T20:56:35.208Z,5.67
2019-04-29T20:59:08.980Z,4.77
2019-04-29T21:01:43.141Z,6.20
2019-04-29T21:04:09.388Z,7.40
2019-04-29T21:06:47.349Z,4.60
2019-04-29T21:09:09.789Z,3.97
2019-04-29T21:12:00.927Z,5.27
2019-04-29T21:14:37.986Z,3.73
2019-04-29T21:17:09.510Z,4.87
2019-04-29T21:19:36.915Z,7.20
2019-04-29T21:22:12.902Z,7.27
2019-04-29T21:24:45.309Z,5.40
2019-04-29T21:27:22.172Z,6.07
2019-04-29T21:29:49.790Z,8.20
2019-04-29T21:32:19.973Z,6.27
2019-04-29T21:35:00.648Z,4.40
2019-04-29T21:37:55.855Z,5.47
2019-04-29T21:40:40.656Z,6.70
2019-04-29T21:43:17.469Z,6.73
2019-04-29T21:48:37.744Z,6.13
2019-04-29T21:51:12.977Z,5.50
2019-04-29T21:54:02.649Z,9.50
2019-04-29T21:56:39.714Z,5.03
2019-04-29T21:59:12.303Z,5.57
2019-04-29T22:01:40.662Z,5.30
2019-04-29T22:04:12.975Z,7.27
2019-04-29T22:06:42.459Z,5.67
2019-04-29T22:09:12.656Z,4.60
2019-04-29T22:11:43.450Z,7.20
2019-04-29T22:14:20.071Z,7.63
2019-04-29T22:16:54.260Z,5.23
2019-04-29T22:19:26.925Z,5.43
2019-04-29T22:21:57.881Z,5.70
2019-04-29T22:24:27.760Z,4.83
2019-04-29T22:27:04.202Z,8.03
2019-04-29T22:29:32.032Z,6.23
2019-04-29T22:31:58.632Z,7.43
2019-04-29T22:34:28.729Z,7.10
2019-04-29T22:37:01.045Z,6.60
2019-04-29T22:39:30.122Z,5.77
2019-04-29T22:42:23.570Z,4.43
2019-04-29T22:44:56.761Z,6.00
2019-04-29T22:47:27.469Z,5.23
2019-04-29T22:49:58.750Z,5.90
2019-04-29T22:52:29.852Z,5.40
2019-04-29T22:55:02.371Z,6.90
2019-04-29T22:57:36.526Z,6.87
2019-04-29T23:00:06.475Z,6.10
2019-04-29T23:02:35.638Z,4.83
2019-04-29T23:05:04.921Z,6.63
2019-04-29T23:07:35.256Z,4.73
2019-04-29T23:10:05.702Z,6.13
2019-04-29T23:12:35.038Z,5.03
2019-04-29T23:15:05.739Z,6.10
2019-04-29T23:17:35.441Z,5.30
2019-04-29T23:20:25.451Z,6.30
2019-04-29T23:22:58.630Z,6.57
2019-04-29T23:25:37.519Z,5.50
2019-04-29T23:28:06.855Z,3.90
2019-04-29T23:30:35.937Z,5.27
2019-04-29T23:33:05.198Z,5.67
2019-04-29T23:35:34.989Z,4.90
2019-04-29T23:38:09.153Z,7.20
2019-04-29T23:40:35.387Z,4.97
2019-04-29T23:43:06.163Z,7.60
2019-04-29T23:45:35.362Z,5.40
2019-04-29T23:48:05.637Z,5.30
2019-04-29T23:50:35.948Z,5.63
2019-04-29T23:53:05.825Z,4.87
2019-04-29T23:55:35.633Z,6.30
2019-04-29T23:58:27.549Z,4.87
